X  Zamknij Lotniskowe dane METAR     LBPD Plovdiv International Airport
Temperatura
84°F Temperatura
61°F Punkt rosy
45% Wilgotność



Wiatr
6 MPH
10 KM/H
3 M/S
5 KTS



Cisza
N
Warunki bieżące

Czyste Czyste
Ciśnienie 1016.93 (hPa) - 30.03 (inHg)
Widoczność 6 (mil) - 9.7 (km)
Lotnisko
Kod lotniska LBPD

Położenie: Plovdiv International Airport
Odległość: 14 (mi)

Metar:
LBPD 200730Z AUTO VRB05KT 9999 NCD 29/16 Q1017 NOSIG

Czas: 20-06-2024 10:30 EEST